sensor_id;sensor_type;location;lat;lon;timestamp;P1;durP1;ratioP1;P2;durP2;ratioP2
21010;SDS011;10663;42.714;23.274;2022-11-02T00:00:41;19.55;;;10.70;;
21010;SDS011;10663;42.714;23.274;2022-11-02T00:02:12;21.30;;;11.07;;
21010;SDS011;10663;42.714;23.274;2022-11-02T00:03:43;17.95;;;11.02;;
21010;SDS011;10663;42.714;23.274;2022-11-02T00:05:13;16.63;;;10.25;;
21010;SDS011;10663;42.714;23.274;2022-11-02T00:06:45;18.98;;;10.73;;
21010;SDS011;10663;42.714;23.274;2022-11-02T00:08:15;17.83;;;11.07;;
21010;SDS011;10663;42.714;23.274;2022-11-02T00:09:46;20.80;;;11.57;;
21010;SDS011;10663;42.714;23.274;2022-11-02T00:11:17;19.85;;;11.65;;
21010;SDS011;10663;42.714;23.274;2022-11-02T00:12:48;20.27;;;11.55;;
21010;SDS011;10663;42.714;23.274;2022-11-02T00:14:20;21.43;;;12.17;;
21010;SDS011;10663;42.714;23.274;2022-11-02T00:15:50;19.93;;;11.67;;
21010;SDS011;10663;42.714;23.274;2022-11-02T00:17:22;18.58;;;11.07;;
21010;SDS011;10663;42.714;23.274;2022-11-02T00:18:54;17.45;;;11.18;;
21010;SDS011;10663;42.714;23.274;2022-11-02T00:20:29;17.17;;;11.27;;
21010;SDS011;10663;42.714;23.274;2022-11-02T00:22:00;19.08;;;11.10;;
21010;SDS011;10663;42.714;23.274;2022-11-02T00:23:32;22.98;;;12.18;;
21010;SDS011;10663;42.714;23.274;2022-11-02T00:25:03;23.48;;;11.25;;
21010;SDS011;10663;42.714;23.274;2022-11-02T00:26:36;21.38;;;10.85;;
21010;SDS011;10663;42.714;23.274;2022-11-02T00:28:07;18.05;;;11.20;;
21010;SDS011;10663;42.714;23.274;2022-11-02T00:29:40;16.23;;;11.10;;
21010;SDS011;10663;42.714;23.274;2022-11-02T00:31:11;19.15;;;11.35;;
21010;SDS011;10663;42.714;23.274;2022-11-02T00:32:42;19.83;;;11.05;;
21010;SDS011;10663;42.714;23.274;2022-11-02T00:34:13;19.08;;;11.40;;
21010;SDS011;10663;42.714;23.274;2022-11-02T00:35:44;18.00;;;10.52;;
21010;SDS011;10663;42.714;23.274;2022-11-02T00:37:15;19.80;;;11.65;;
21010;SDS011;10663;42.714;23.274;2022-11-02T00:38:46;18.33;;;10.77;;
21010;SDS011;10663;42.714;23.274;2022-11-02T00:40:17;17.80;;;11.07;;
21010;SDS011;10663;42.714;23.274;2022-11-02T00:41:48;19.38;;;10.80;;
21010;SDS011;10663;42.714;23.274;2022-11-02T00:43:19;16.98;;;10.43;;
21010;SDS011;10663;42.714;23.274;2022-11-02T00:44:50;22.60;;;11.00;;
21010;SDS011;10663;42.714;23.274;2022-11-02T00:46:22;20.48;;;11.02;;
21010;SDS011;10663;42.714;23.274;2022-11-02T00:47:53;19.13;;;10.57;;
21010;SDS011;10663;42.714;23.274;2022-11-02T00:49:25;18.13;;;10.80;;
21010;SDS011;10663;42.714;23.274;2022-11-02T00:50:56;21.33;;;11.13;;
21010;SDS011;10663;42.714;23.274;2022-11-02T00:52:31;19.95;;;11.40;;
21010;SDS011;10663;42.714;23.274;2022-11-02T00:54:02;20.08;;;10.85;;
21010;SDS011;10663;42.714;23.274;2022-11-02T00:55:33;18.73;;;11.48;;
21010;SDS011;10663;42.714;23.274;2022-11-02T00:57:06;16.92;;;10.60;;
21010;SDS011;10663;42.714;23.274;2022-11-02T00:58:38;17.83;;;10.90;;
21010;SDS011;10663;42.714;23.274;2022-11-02T01:00:10;16.55;;;10.52;;
21010;SDS011;10663;42.714;23.274;2022-11-02T01:01:42;19.80;;;10.93;;
21010;SDS011;10663;42.714;23.274;2022-11-02T01:03:16;18.45;;;10.77;;
21010;SDS011;10663;42.714;23.274;2022-11-02T01:04:47;18.30;;;11.07;;
21010;SDS011;10663;42.714;23.274;2022-11-02T01:06:18;18.77;;;10.80;;
21010;SDS011;10663;42.714;23.274;2022-11-02T01:07:49;20.30;;;11.27;;
21010;SDS011;10663;42.714;23.274;2022-11-02T01:09:21;19.20;;;11.20;;
21010;SDS011;10663;42.714;23.274;2022-11-02T01:10:52;20.05;;;11.63;;
21010;SDS011;10663;42.714;23.274;2022-11-02T01:12:23;19.75;;;10.60;;
21010;SDS011;10663;42.714;23.274;2022-11-02T01:13:54;15.57;;;10.57;;
21010;SDS011;10663;42.714;23.274;2022-11-02T01:15:25;22.23;;;11.60;;
21010;SDS011;10663;42.714;23.274;2022-11-02T01:16:56;20.50;;;11.32;;
21010;SDS011;10663;42.714;23.274;2022-11-02T01:18:27;18.52;;;11.35;;
21010;SDS011;10663;42.714;23.274;2022-11-02T01:19:58;19.50;;;12.23;;
21010;SDS011;10663;42.714;23.274;2022-11-02T01:21:29;20.60;;;10.80;;
21010;SDS011;10663;42.714;23.274;2022-11-02T01:22:59;20.60;;;11.37;;
21010;SDS011;10663;42.714;23.274;2022-11-02T01:24:30;21.10;;;11.00;;
21010;SDS011;10663;42.714;23.274;2022-11-02T01:26:02;19.65;;;11.52;;
21010;SDS011;10663;42.714;23.274;2022-11-02T01:27:34;17.95;;;10.90;;
21010;SDS011;10663;42.714;23.274;2022-11-02T01:29:04;17.40;;;10.80;;
21010;SDS011;10663;42.714;23.274;2022-11-02T01:30:36;16.93;;;10.20;;
21010;SDS011;10663;42.714;23.274;2022-11-02T01:32:08;15.15;;;10.63;;
21010;SDS011;10663;42.714;23.274;2022-11-02T01:33:42;20.88;;;11.27;;
21010;SDS011;10663;42.714;23.274;2022-11-02T01:35:14;19.33;;;10.50;;
21010;SDS011;10663;42.714;23.274;2022-11-02T01:36:46;19.42;;;10.98;;
21010;SDS011;10663;42.714;23.274;2022-11-02T01:38:20;16.37;;;10.27;;
21010;SDS011;10663;42.714;23.274;2022-11-02T01:39:51;18.37;;;10.23;;
21010;SDS011;10663;42.714;23.274;2022-11-02T01:41:22;21.15;;;10.90;;
21010;SDS011;10663;42.714;23.274;2022-11-02T01:42:53;17.73;;;10.90;;
21010;SDS011;10663;42.714;23.274;2022-11-02T01:46:06;19.58;;;10.52;;
21010;SDS011;10663;42.714;23.274;2022-11-02T01:47:44;18.33;;;10.55;;
21010;SDS011;10663;42.714;23.274;2022-11-02T01:49:18;20.70;;;11.43;;
21010;SDS011;10663;42.714;23.274;2022-11-02T01:50:51;16.60;;;10.35;;
21010;SDS011;10663;42.714;23.274;2022-11-02T01:52:30;18.20;;;9.85;;
21010;SDS011;10663;42.714;23.274;2022-11-02T01:54:09;20.98;;;10.45;;
21010;SDS011;10663;42.714;23.274;2022-11-02T01:55:44;19.45;;;10.25;;
21010;SDS011;10663;42.714;23.274;2022-11-02T01:57:17;19.45;;;10.77;;
21010;SDS011;10663;42.714;23.274;2022-11-02T01:58:53;17.77;;;11.15;;
21010;SDS011;10663;42.714;23.274;2022-11-02T02:00:27;20.15;;;10.45;;
21010;SDS011;10663;42.714;23.274;2022-11-02T02:01:58;16.47;;;10.20;;
21010;SDS011;10663;42.714;23.274;2022-11-02T02:03:30;19.98;;;10.68;;
21010;SDS011;10663;42.714;23.274;2022-11-02T02:05:06;14.85;;;9.90;;
21010;SDS011;10663;42.714;23.274;2022-11-02T02:06:40;17.50;;;10.30;;
21010;SDS011;10663;42.714;23.274;2022-11-02T02:08:11;16.70;;;10.38;;
21010;SDS011;10663;42.714;23.274;2022-11-02T02:09:47;16.42;;;9.70;;
21010;SDS011;10663;42.714;23.274;2022-11-02T02:12:58;17.52;;;10.30;;
21010;SDS011;10663;42.714;23.274;2022-11-02T02:14:29;14.50;;;9.75;;
21010;SDS011;10663;42.714;23.274;2022-11-02T02:16:01;16.50;;;10.32;;
21010;SDS011;10663;42.714;23.274;2022-11-02T02:17:44;18.23;;;10.10;;
21010;SDS011;10663;42.714;23.274;2022-11-02T02:19:39;16.37;;;10.47;;
21010;SDS011;10663;42.714;23.274;2022-11-02T02:23:11;20.48;;;10.63;;
21010;SDS011;10663;42.714;23.274;2022-11-02T02:24:44;17.35;;;10.15;;
21010;SDS011;10663;42.714;23.274;2022-11-02T02:30:12;17.95;;;11.15;;
21010;SDS011;10663;42.714;23.274;2022-11-02T02:33:29;19.52;;;11.63;;
21010;SDS011;10663;42.714;23.274;2022-11-02T02:37:04;21.00;;;12.10;;
21010;SDS011;10663;42.714;23.274;2022-11-02T02:40:39;20.05;;;12.80;;
21010;SDS011;10663;42.714;23.274;2022-11-02T02:42:19;20.05;;;12.25;;
21010;SDS011;10663;42.714;23.274;2022-11-02T02:43:53;19.35;;;11.98;;
21010;SDS011;10663;42.714;23.274;2022-11-02T02:45:36;21.80;;;12.32;;
21010;SDS011;10663;42.714;23.274;2022-11-02T02:47:12;18.23;;;11.88;;
21010;SDS011;10663;42.714;23.274;2022-11-02T02:48:48;21.80;;;13.00;;
21010;SDS011;10663;42.714;23.274;2022-11-02T02:50:22;19.42;;;11.57;;
21010;SDS011;10663;42.714;23.274;2022-11-02T02:51:58;24.00;;;13.50;;
21010;SDS011;10663;42.714;23.274;2022-11-02T02:53:37;22.20;;;12.50;;
21010;SDS011;10663;42.714;23.274;2022-11-02T02:55:17;19.85;;;12.57;;
21010;SDS011;10663;42.714;23.274;2022-11-02T02:56:56;21.98;;;13.50;;
21010;SDS011;10663;42.714;23.274;2022-11-02T02:58:34;26.27;;;14.07;;
21010;SDS011;10663;42.714;23.274;2022-11-02T03:00:15;25.48;;;14.35;;
21010;SDS011;10663;42.714;23.274;2022-11-02T03:01:48;26.35;;;14.02;;
21010;SDS011;10663;42.714;23.274;2022-11-02T03:03:21;25.20;;;15.30;;
21010;SDS011;10663;42.714;23.274;2022-11-02T03:04:55;25.23;;;14.45;;
21010;SDS011;10663;42.714;23.274;2022-11-02T03:06:28;26.07;;;14.40;;
21010;SDS011;10663;42.714;23.274;2022-11-02T03:08:11;26.27;;;15.00;;
21010;SDS011;10663;42.714;23.274;2022-11-02T03:09:50;24.98;;;14.63;;
21010;SDS011;10663;42.714;23.274;2022-11-02T03:11:29;25.13;;;13.75;;
21010;SDS011;10663;42.714;23.274;2022-11-02T03:15:19;26.42;;;14.02;;
21010;SDS011;10663;42.714;23.274;2022-11-02T03:17:40;27.50;;;14.70;;
21010;SDS011;10663;42.714;23.274;2022-11-02T03:22:58;24.90;;;14.27;;
21010;SDS011;10663;42.714;23.274;2022-11-02T03:24:34;22.92;;;14.05;;
21010;SDS011;10663;42.714;23.274;2022-11-02T03:26:33;25.23;;;15.30;;
21010;SDS011;10663;42.714;23.274;2022-11-02T03:28:30;25.00;;;14.07;;
21010;SDS011;10663;42.714;23.274;2022-11-02T03:30:25;25.38;;;14.00;;
21010;SDS011;10663;42.714;23.274;2022-11-02T03:32:06;29.48;;;14.80;;
21010;SDS011;10663;42.714;23.274;2022-11-02T03:33:53;28.33;;;15.15;;
21010;SDS011;10663;42.714;23.274;2022-11-02T03:35:53;24.40;;;15.20;;
21010;SDS011;10663;42.714;23.274;2022-11-02T03:37:40;24.75;;;14.13;;
21010;SDS011;10663;42.714;23.274;2022-11-02T03:39:21;23.58;;;13.73;;
21010;SDS011;10663;42.714;23.274;2022-11-02T03:40:59;23.35;;;14.27;;
21010;SDS011;10663;42.714;23.274;2022-11-02T03:42:34;23.27;;;13.63;;
21010;SDS011;10663;42.714;23.274;2022-11-02T03:44:07;25.90;;;14.18;;
21010;SDS011;10663;42.714;23.274;2022-11-02T03:45:47;23.00;;;13.70;;
21010;SDS011;10663;42.714;23.274;2022-11-02T03:47:21;25.50;;;13.97;;
21010;SDS011;10663;42.714;23.274;2022-11-02T03:48:56;22.83;;;13.63;;
21010;SDS011;10663;42.714;23.274;2022-11-02T03:50:27;23.85;;;14.43;;
21010;SDS011;10663;42.714;23.274;2022-11-02T03:51:59;28.50;;;13.82;;
21010;SDS011;10663;42.714;23.274;2022-11-02T03:55:30;23.88;;;14.18;;
21010;SDS011;10663;42.714;23.274;2022-11-02T03:57:05;22.17;;;13.93;;
21010;SDS011;10663;42.714;23.274;2022-11-02T03:58:39;23.48;;;14.27;;
21010;SDS011;10663;42.714;23.274;2022-11-02T04:00:12;21.30;;;13.48;;
21010;SDS011;10663;42.714;23.274;2022-11-02T04:01:58;24.92;;;13.18;;
21010;SDS011;10663;42.714;23.274;2022-11-02T04:03:32;22.00;;;13.52;;
21010;SDS011;10663;42.714;23.274;2022-11-02T04:05:05;21.15;;;13.45;;
21010;SDS011;10663;42.714;23.274;2022-11-02T04:06:36;23.02;;;12.55;;
21010;SDS011;10663;42.714;23.274;2022-11-02T04:08:08;20.85;;;12.45;;
21010;SDS011;10663;42.714;23.274;2022-11-02T04:09:52;22.30;;;13.65;;
21010;SDS011;10663;42.714;23.274;2022-11-02T04:11:24;20.05;;;12.27;;
21010;SDS011;10663;42.714;23.274;2022-11-02T04:13:16;19.45;;;12.70;;
21010;SDS011;10663;42.714;23.274;2022-11-02T04:15:06;20.80;;;12.88;;
21010;SDS011;10663;42.714;23.274;2022-11-02T04:16:38;23.65;;;13.15;;
21010;SDS011;10663;42.714;23.274;2022-11-02T04:18:13;20.20;;;12.90;;
21010;SDS011;10663;42.714;23.274;2022-11-02T04:20:03;18.45;;;13.20;;
21010;SDS011;10663;42.714;23.274;2022-11-02T04:21:35;18.95;;;12.52;;
21010;SDS011;10663;42.714;23.274;2022-11-02T04:23:07;24.20;;;13.10;;
21010;SDS011;10663;42.714;23.274;2022-11-02T04:24:57;25.30;;;13.27;;
21010;SDS011;10663;42.714;23.274;2022-11-02T04:26:52;22.77;;;13.80;;
21010;SDS011;10663;42.714;23.274;2022-11-02T04:28:23;24.38;;;14.00;;
21010;SDS011;10663;42.714;23.274;2022-11-02T04:29:59;22.77;;;14.63;;
21010;SDS011;10663;42.714;23.274;2022-11-02T04:31:33;26.30;;;14.80;;
21010;SDS011;10663;42.714;23.274;2022-11-02T04:33:04;22.83;;;14.02;;
21010;SDS011;10663;42.714;23.274;2022-11-02T04:34:58;24.30;;;14.65;;
21010;SDS011;10663;42.714;23.274;2022-11-02T04:36:29;21.23;;;14.57;;
21010;SDS011;10663;42.714;23.274;2022-11-02T04:38:02;20.20;;;14.43;;
21010;SDS011;10663;42.714;23.274;2022-11-02T04:39:51;23.17;;;13.68;;
21010;SDS011;10663;42.714;23.274;2022-11-02T04:41:22;25.55;;;14.63;;
21010;SDS011;10663;42.714;23.274;2022-11-02T04:43:27;23.65;;;13.98;;
21010;SDS011;10663;42.714;23.274;2022-11-02T04:44:58;23.65;;;15.27;;
21010;SDS011;10663;42.714;23.274;2022-11-02T04:46:30;25.27;;;16.00;;
21010;SDS011;10663;42.714;23.274;2022-11-02T04:48:05;27.00;;;15.63;;
21010;SDS011;10663;42.714;23.274;2022-11-02T04:49:38;23.77;;;14.57;;
21010;SDS011;10663;42.714;23.274;2022-11-02T04:51:13;24.45;;;14.80;;
21010;SDS011;10663;42.714;23.274;2022-11-02T04:52:44;25.70;;;14.50;;
21010;SDS011;10663;42.714;23.274;2022-11-02T04:54:15;21.42;;;14.20;;
21010;SDS011;10663;42.714;23.274;2022-11-02T04:55:47;22.75;;;14.88;;
21010;SDS011;10663;42.714;23.274;2022-11-02T04:57:18;27.23;;;14.55;;
21010;SDS011;10663;42.714;23.274;2022-11-02T04:58:49;26.98;;;15.20;;
21010;SDS011;10663;42.714;23.274;2022-11-02T05:00:22;25.10;;;15.13;;
21010;SDS011;10663;42.714;23.274;2022-11-02T05:01:54;27.20;;;16.83;;
21010;SDS011;10663;42.714;23.274;2022-11-02T05:03:25;28.52;;;17.27;;
21010;SDS011;10663;42.714;23.274;2022-11-02T05:04:56;23.60;;;15.15;;
21010;SDS011;10663;42.714;23.274;2022-11-02T05:06:27;23.73;;;14.50;;
21010;SDS011;10663;42.714;23.274;2022-11-02T05:07:59;23.75;;;15.35;;
21010;SDS011;10663;42.714;23.274;2022-11-02T05:09:31;27.10;;;16.30;;
21010;SDS011;10663;42.714;23.274;2022-11-02T05:11:02;24.30;;;16.13;;
21010;SDS011;10663;42.714;23.274;2022-11-02T05:12:34;22.90;;;14.55;;
21010;SDS011;10663;42.714;23.274;2022-11-02T05:14:06;24.92;;;16.35;;
21010;SDS011;10663;42.714;23.274;2022-11-02T05:15:39;26.85;;;16.73;;
21010;SDS011;10663;42.714;23.274;2022-11-02T05:17:11;29.38;;;16.17;;
21010;SDS011;10663;42.714;23.274;2022-11-02T05:18:43;26.95;;;15.68;;
21010;SDS011;10663;42.714;23.274;2022-11-02T05:20:14;28.77;;;16.60;;
21010;SDS011;10663;42.714;23.274;2022-11-02T05:21:46;28.52;;;15.80;;
21010;SDS011;10663;42.714;23.274;2022-11-02T05:23:17;24.42;;;16.33;;
21010;SDS011;10663;42.714;23.274;2022-11-02T05:24:50;28.30;;;15.45;;
21010;SDS011;10663;42.714;23.274;2022-11-02T05:26:21;24.23;;;16.08;;
21010;SDS011;10663;42.714;23.274;2022-11-02T05:27:54;26.23;;;16.85;;
21010;SDS011;10663;42.714;23.274;2022-11-02T05:29:26;30.08;;;16.95;;
21010;SDS011;10663;42.714;23.274;2022-11-02T05:30:58;34.58;;;19.17;;
21010;SDS011;10663;42.714;23.274;2022-11-02T05:32:31;26.65;;;16.45;;
21010;SDS011;10663;42.714;23.274;2022-11-02T05:34:03;25.90;;;17.37;;
21010;SDS011;10663;42.714;23.274;2022-11-02T05:35:34;26.30;;;16.60;;
21010;SDS011;10663;42.714;23.274;2022-11-02T05:37:05;28.38;;;17.73;;
21010;SDS011;10663;42.714;23.274;2022-11-02T05:38:36;25.42;;;16.92;;
21010;SDS011;10663;42.714;23.274;2022-11-02T05:40:08;25.90;;;17.45;;
21010;SDS011;10663;42.714;23.274;2022-11-02T05:41:40;32.63;;;17.65;;
21010;SDS011;10663;42.714;23.274;2022-11-02T05:43:11;27.98;;;17.98;;
21010;SDS011;10663;42.714;23.274;2022-11-02T05:44:43;30.67;;;17.60;;
21010;SDS011;10663;42.714;23.274;2022-11-02T05:46:13;34.70;;;19.40;;
21010;SDS011;10663;42.714;23.274;2022-11-02T05:47:44;27.70;;;17.73;;
21010;SDS011;10663;42.714;23.274;2022-11-02T05:49:15;27.33;;;17.97;;
21010;SDS011;10663;42.714;23.274;2022-11-02T05:50:46;27.33;;;18.03;;
21010;SDS011;10663;42.714;23.274;2022-11-02T05:52:18;32.33;;;17.27;;
21010;SDS011;10663;42.714;23.274;2022-11-02T05:53:49;60.20;;;31.58;;
21010;SDS011;10663;42.714;23.274;2022-11-02T05:55:20;180.10;;;72.53;;
21010;SDS011;10663;42.714;23.274;2022-11-02T05:56:51;322.67;;;126.80;;
21010;SDS011;10663;42.714;23.274;2022-11-02T05:58:21;230.88;;;91.78;;
21010;SDS011;10663;42.714;23.274;2022-11-02T05:59:52;130.90;;;53.67;;
21010;SDS011;10663;42.714;23.274;2022-11-02T06:01:23;173.52;;;71.10;;
21010;SDS011;10663;42.714;23.274;2022-11-02T06:02:57;112.67;;;50.73;;
21010;SDS011;10663;42.714;23.274;2022-11-02T06:04:28;117.60;;;49.27;;
21010;SDS011;10663;42.714;23.274;2022-11-02T06:06:03;99.90;;;45.77;;
21010;SDS011;10663;42.714;23.274;2022-11-02T06:07:36;85.03;;;36.85;;
21010;SDS011;10663;42.714;23.274;2022-11-02T06:09:07;59.93;;;26.57;;
21010;SDS011;10663;42.714;23.274;2022-11-02T06:10:38;75.13;;;35.45;;
21010;SDS011;10663;42.714;23.274;2022-11-02T06:12:12;63.17;;;30.83;;
21010;SDS011;10663;42.714;23.274;2022-11-02T06:13:43;48.20;;;24.97;;
21010;SDS011;10663;42.714;23.274;2022-11-02T06:15:14;44.77;;;25.00;;
21010;SDS011;10663;42.714;23.274;2022-11-02T06:16:45;49.95;;;26.05;;
21010;SDS011;10663;42.714;23.274;2022-11-02T06:18:16;36.47;;;20.90;;
21010;SDS011;10663;42.714;23.274;2022-11-02T06:19:47;42.03;;;22.02;;
21010;SDS011;10663;42.714;23.274;2022-11-02T06:21:18;36.25;;;20.60;;
21010;SDS011;10663;42.714;23.274;2022-11-02T06:22:49;42.30;;;23.05;;
21010;SDS011;10663;42.714;23.274;2022-11-02T06:24:20;44.72;;;23.17;;
21010;SDS011;10663;42.714;23.274;2022-11-02T06:25:51;43.70;;;22.40;;
21010;SDS011;10663;42.714;23.274;2022-11-02T06:27:23;33.47;;;20.33;;
21010;SDS011;10663;42.714;23.274;2022-11-02T06:28:54;37.88;;;21.63;;
21010;SDS011;10663;42.714;23.274;2022-11-02T06:30:25;38.83;;;21.33;;
21010;SDS011;10663;42.714;23.274;2022-11-02T06:31:56;37.50;;;21.10;;
21010;SDS011;10663;42.714;23.274;2022-11-02T06:33:27;37.97;;;21.25;;
21010;SDS011;10663;42.714;23.274;2022-11-02T06:34:59;32.92;;;19.27;;
21010;SDS011;10663;42.714;23.274;2022-11-02T06:36:30;33.58;;;20.55;;
21010;SDS011;10663;42.714;23.274;2022-11-02T06:38:01;31.40;;;18.30;;
21010;SDS011;10663;42.714;23.274;2022-11-02T06:39:32;35.67;;;19.80;;
21010;SDS011;10663;42.714;23.274;2022-11-02T06:41:03;32.50;;;19.50;;
21010;SDS011;10663;42.714;23.274;2022-11-02T06:42:36;32.70;;;19.25;;
21010;SDS011;10663;42.714;23.274;2022-11-02T06:44:07;29.75;;;19.30;;
21010;SDS011;10663;42.714;23.274;2022-11-02T06:45:38;32.78;;;19.65;;
21010;SDS011;10663;42.714;23.274;2022-11-02T06:47:09;33.72;;;20.05;;
21010;SDS011;10663;42.714;23.274;2022-11-02T06:48:40;33.90;;;20.52;;
21010;SDS011;10663;42.714;23.274;2022-11-02T06:50:11;31.37;;;19.87;;
21010;SDS011;10663;42.714;23.274;2022-11-02T06:51:42;38.15;;;19.90;;
21010;SDS011;10663;42.714;23.274;2022-11-02T06:53:13;37.95;;;20.40;;
21010;SDS011;10663;42.714;23.274;2022-11-02T06:54:44;39.78;;;20.77;;
21010;SDS011;10663;42.714;23.274;2022-11-02T06:56:14;32.55;;;20.33;;
21010;SDS011;10663;42.714;23.274;2022-11-02T06:57:45;35.42;;;20.83;;
21010;SDS011;10663;42.714;23.274;2022-11-02T06:59:16;34.95;;;21.27;;
21010;SDS011;10663;42.714;23.274;2022-11-02T07:00:47;39.92;;;21.15;;
21010;SDS011;10663;42.714;23.274;2022-11-02T07:02:19;36.72;;;21.15;;
21010;SDS011;10663;42.714;23.274;2022-11-02T07:03:51;39.70;;;22.08;;
21010;SDS011;10663;42.714;23.274;2022-11-02T07:05:22;38.42;;;21.67;;
21010;SDS011;10663;42.714;23.274;2022-11-02T07:06:53;36.77;;;22.53;;
21010;SDS011;10663;42.714;23.274;2022-11-02T07:08:24;37.70;;;22.03;;
21010;SDS011;10663;42.714;23.274;2022-11-02T07:09:55;35.13;;;21.35;;
21010;SDS011;10663;42.714;23.274;2022-11-02T07:11:26;35.92;;;20.63;;
21010;SDS011;10663;42.714;23.274;2022-11-02T07:12:57;40.30;;;21.25;;
21010;SDS011;10663;42.714;23.274;2022-11-02T07:14:28;36.28;;;20.85;;
21010;SDS011;10663;42.714;23.274;2022-11-02T07:15:59;38.22;;;21.85;;
21010;SDS011;10663;42.714;23.274;2022-11-02T07:17:30;33.72;;;21.05;;
21010;SDS011;10663;42.714;23.274;2022-11-02T07:19:01;31.15;;;20.58;;
21010;SDS011;10663;42.714;23.274;2022-11-02T07:20:33;32.80;;;19.88;;
21010;SDS011;10663;42.714;23.274;2022-11-02T07:22:04;34.17;;;20.55;;
21010;SDS011;10663;42.714;23.274;2022-11-02T07:23:35;38.95;;;22.23;;
21010;SDS011;10663;42.714;23.274;2022-11-02T07:25:06;35.38;;;21.75;;
21010;SDS011;10663;42.714;23.274;2022-11-02T07:26:37;36.00;;;23.25;;
21010;SDS011;10663;42.714;23.274;2022-11-02T07:28:08;39.53;;;23.35;;
21010;SDS011;10663;42.714;23.274;2022-11-02T07:29:39;34.78;;;22.23;;
21010;SDS011;10663;42.714;23.274;2022-11-02T07:31:10;38.67;;;22.45;;
21010;SDS011;10663;42.714;23.274;2022-11-02T07:32:41;37.40;;;22.83;;
21010;SDS011;10663;42.714;23.274;2022-11-02T07:34:13;35.65;;;21.85;;
21010;SDS011;10663;42.714;23.274;2022-11-02T07:35:44;36.67;;;22.63;;
21010;SDS011;10663;42.714;23.274;2022-11-02T07:37:15;36.90;;;22.20;;
21010;SDS011;10663;42.714;23.274;2022-11-02T07:38:46;33.50;;;22.03;;
21010;SDS011;10663;42.714;23.274;2022-11-02T07:40:17;35.50;;;22.73;;
21010;SDS011;10663;42.714;23.274;2022-11-02T07:41:49;35.90;;;21.20;;
21010;SDS011;10663;42.714;23.274;2022-11-02T07:43:20;37.60;;;22.27;;
21010;SDS011;10663;42.714;23.274;2022-11-02T07:45:17;34.63;;;20.92;;
21010;SDS011;10663;42.714;23.274;2022-11-02T07:46:50;35.88;;;20.92;;
21010;SDS011;10663;42.714;23.274;2022-11-02T07:48:21;36.40;;;20.53;;
21010;SDS011;10663;42.714;23.274;2022-11-02T07:49:52;37.20;;;20.90;;
21010;SDS011;10663;42.714;23.274;2022-11-02T07:51:23;35.83;;;21.27;;
21010;SDS011;10663;42.714;23.274;2022-11-02T07:52:55;32.90;;;19.17;;
21010;SDS011;10663;42.714;23.274;2022-11-02T07:54:27;35.17;;;19.83;;
21010;SDS011;10663;42.714;23.274;2022-11-02T07:55:59;30.95;;;20.08;;
21010;SDS011;10663;42.714;23.274;2022-11-02T07:57:30;35.60;;;20.42;;
21010;SDS011;10663;42.714;23.274;2022-11-02T07:59:01;36.33;;;20.33;;
21010;SDS011;10663;42.714;23.274;2022-11-02T08:00:33;34.40;;;20.20;;
21010;SDS011;10663;42.714;23.274;2022-11-02T08:02:08;35.92;;;18.98;;
21010;SDS011;10663;42.714;23.274;2022-11-02T08:03:42;32.60;;;19.60;;
21010;SDS011;10663;42.714;23.274;2022-11-02T08:05:13;35.33;;;18.83;;
21010;SDS011;10663;42.714;23.274;2022-11-02T08:06:44;32.20;;;20.00;;
21010;SDS011;10663;42.714;23.274;2022-11-02T08:08:19;30.42;;;18.80;;
21010;SDS011;10663;42.714;23.274;2022-11-02T08:09:51;33.00;;;20.10;;
21010;SDS011;10663;42.714;23.274;2022-11-02T08:11:22;28.87;;;18.57;;
21010;SDS011;10663;42.714;23.274;2022-11-02T08:12:54;27.20;;;16.43;;
21010;SDS011;10663;42.714;23.274;2022-11-02T08:14:25;30.48;;;17.70;;
21010;SDS011;10663;42.714;23.274;2022-11-02T08:15:56;28.50;;;16.38;;
21010;SDS011;10663;42.714;23.274;2022-11-02T08:17:27;27.70;;;15.35;;
21010;SDS011;10663;42.714;23.274;2022-11-02T08:18:58;22.05;;;14.88;;
21010;SDS011;10663;42.714;23.274;2022-11-02T08:20:29;26.85;;;15.85;;
21010;SDS011;10663;42.714;23.274;2022-11-02T08:22:01;26.73;;;16.42;;
21010;SDS011;10663;42.714;23.274;2022-11-02T08:23:32;25.47;;;15.40;;
21010;SDS011;10663;42.714;23.274;2022-11-02T08:25:03;24.85;;;15.63;;
21010;SDS011;10663;42.714;23.274;2022-11-02T08:26:34;25.05;;;15.73;;
21010;SDS011;10663;42.714;23.274;2022-11-02T08:28:06;26.42;;;16.95;;
21010;SDS011;10663;42.714;23.274;2022-11-02T08:29:41;27.23;;;16.60;;
21010;SDS011;10663;42.714;23.274;2022-11-02T08:31:13;27.70;;;17.08;;
21010;SDS011;10663;42.714;23.274;2022-11-02T08:32:45;28.67;;;16.55;;
21010;SDS011;10663;42.714;23.274;2022-11-02T08:34:16;26.65;;;15.73;;
21010;SDS011;10663;42.714;23.274;2022-11-02T08:35:48;28.92;;;15.82;;
21010;SDS011;10663;42.714;23.274;2022-11-02T08:37:19;28.42;;;15.48;;
21010;SDS011;10663;42.714;23.274;2022-11-02T08:38:50;24.95;;;15.80;;
21010;SDS011;10663;42.714;23.274;2022-11-02T08:40:21;29.77;;;16.55;;
21010;SDS011;10663;42.714;23.274;2022-11-02T08:41:52;23.98;;;14.95;;
21010;SDS011;10663;42.714;23.274;2022-11-02T08:43:23;25.33;;;14.25;;
21010;SDS011;10663;42.714;23.274;2022-11-02T08:44:54;28.10;;;14.60;;
21010;SDS011;10663;42.714;23.274;2022-11-02T08:46:26;21.92;;;13.48;;
21010;SDS011;10663;42.714;23.274;2022-11-02T08:47:56;22.90;;;13.57;;
21010;SDS011;10663;42.714;23.274;2022-11-02T08:49:28;23.85;;;13.63;;
21010;SDS011;10663;42.714;23.274;2022-11-02T08:50:59;25.63;;;14.23;;
21010;SDS011;10663;42.714;23.274;2022-11-02T08:52:33;23.63;;;14.50;;
21010;SDS011;10663;42.714;23.274;2022-11-02T08:54:06;26.38;;;15.18;;
21010;SDS011;10663;42.714;23.274;2022-11-02T08:55:36;26.50;;;14.65;;
21010;SDS011;10663;42.714;23.274;2022-11-02T08:57:07;24.65;;;14.25;;
21010;SDS011;10663;42.714;23.274;2022-11-02T08:58:39;22.98;;;14.20;;
21010;SDS011;10663;42.714;23.274;2022-11-02T09:00:10;22.38;;;14.32;;
21010;SDS011;10663;42.714;23.274;2022-11-02T09:01:41;20.80;;;12.82;;
21010;SDS011;10663;42.714;23.274;2022-11-02T09:03:14;27.15;;;14.82;;
21010;SDS011;10663;42.714;23.274;2022-11-02T09:04:45;24.83;;;14.13;;
21010;SDS011;10663;42.714;23.274;2022-11-02T09:06:16;20.00;;;13.40;;
21010;SDS011;10663;42.714;23.274;2022-11-02T09:07:47;22.95;;;13.90;;
21010;SDS011;10663;42.714;23.274;2022-11-02T09:09:18;26.65;;;15.02;;
21010;SDS011;10663;42.714;23.274;2022-11-02T09:10:50;24.90;;;15.35;;
21010;SDS011;10663;42.714;23.274;2022-11-02T09:12:22;24.58;;;14.02;;
21010;SDS011;10663;42.714;23.274;2022-11-02T09:13:53;26.67;;;14.52;;
21010;SDS011;10663;42.714;23.274;2022-11-02T09:15:24;23.13;;;14.30;;
21010;SDS011;10663;42.714;23.274;2022-11-02T09:16:55;26.23;;;14.93;;
21010;SDS011;10663;42.714;23.274;2022-11-02T09:18:26;26.90;;;14.57;;
21010;SDS011;10663;42.714;23.274;2022-11-02T09:19:57;29.55;;;15.25;;
21010;SDS011;10663;42.714;23.274;2022-11-02T09:21:28;29.60;;;15.57;;